Time;durP1;ratioP1;P1;durP2;ratioP2;P2;SDS_P1;SDS_P2;PMS_P1;PMS_P2;Temp;Humidity;BMP_temperature;BMP_pressure;BME280_temperature;BME280_humidity;BME280_pressure;Samples;Min_cycle;Max_cycle;Signal;HPM_P1;HPM_P2
2021/06/30 00:02:00;;;;;;;4.53;3.58;;;;;;;22.04;57.77;101299.47;5075086;28;20037;-72
2021/06/30 00:04:26;;;;;;;3.35;3.05;;;;;;;22.05;57.63;101302.09;5076238;28;20025;-72
2021/06/30 00:06:51;;;;;;;5.95;3.85;;;;;;;22.06;57.69;101310.88;5074918;28;20059;-72
2021/06/30 00:09:18;;;;;;;5.30;3.72;;;;;;;22.05;57.49;101309.13;5075047;28;20123;-72
2021/06/30 00:11:44;;;;;;;4.65;3.97;;;;;;;22.05;57.85;101298.59;5076087;28;20025;-72
2021/06/30 00:14:10;;;;;;;3.78;3.42;;;;;;;22.04;57.88;101300.34;5075298;28;20382;-72
2021/06/30 00:16:36;;;;;;;3.80;3.28;;;;;;;22.04;57.73;101302.13;5075778;28;20486;-71
2021/06/30 00:19:03;;;;;;;3.17;2.88;;;;;;;22.05;57.66;101299.47;5077953;28;20051;-73
2021/06/30 00:21:29;;;;;;;4.15;3.53;;;;;;;22.05;57.77;101301.22;5077685;28;20032;-72
2021/06/30 00:23:54;;;;;;;3.53;3.10;;;;;;;22.04;57.59;101294.22;5075331;28;20036;-72
2021/06/30 00:26:20;;;;;;;5.13;3.30;;;;;;;22.04;57.65;101294.22;5078890;28;20078;-73
2021/06/30 00:28:46;;;;;;;3.60;3.25;;;;;;;22.04;57.64;101289.81;5059675;28;20124;-73
2021/06/30 00:31:12;;;;;;;3.58;3.10;;;;;;;22.03;57.69;101289.84;5074497;28;20031;-72
2021/06/30 00:33:37;;;;;;;3.85;3.45;;;;;;;22.03;57.69;101287.19;5074584;28;20031;-72
2021/06/30 00:36:03;;;;;;;4.10;3.40;;;;;;;22.03;57.67;101287.19;5074391;28;20060;-72
2021/06/30 00:38:28;;;;;;;3.72;3.28;;;;;;;22.03;57.53;101285.44;5041191;28;20446;-72
2021/06/30 00:40:53;;;;;;;4.43;3.38;;;;;;;22.02;57.79;101281.06;5074399;28;20032;-72
2021/06/30 00:43:19;;;;;;;4.00;3.53;;;;;;;22.03;57.51;101281.94;5075391;28;20021;-72
2021/06/30 00:45:44;;;;;;;4.28;2.80;;;;;;;22.03;57.66;101282.81;5075124;28;20028;-72
2021/06/30 00:48:11;;;;;;;4.00;3.60;;;;;;;22.03;57.76;101287.19;5074980;28;20131;-72
2021/06/30 00:50:36;;;;;;;3.50;3.15;;;;;;;22.04;57.69;101294.22;5075527;28;20440;-72
2021/06/30 00:53:01;;;;;;;3.75;3.25;;;;;;;22.01;57.62;101283.69;5075281;28;20037;-72
2021/06/30 00:55:27;;;;;;;3.85;3.40;;;;;;;22.01;57.77;101279.31;5057306;28;20050;-72
2021/06/30 00:57:52;;;;;;;3.72;3.13;;;;;;;22.04;57.60;101283.69;5057364;28;20032;-72
2021/06/30 01:00:17;;;;;;;4.60;3.22;;;;;;;22.03;57.64;101287.19;5075226;28;20481;-73
2021/06/30 01:02:43;;;;;;;3.45;3.15;;;;;;;22.03;57.56;101284.56;5075104;28;20029;-72
2021/06/30 01:05:09;;;;;;;3.45;3.15;;;;;;;21.99;57.62;101283.72;5075100;28;20078;-72
2021/06/30 01:07:34;;;;;;;3.63;3.08;;;;;;;22.02;57.70;101286.31;5073823;28;20033;-72
2021/06/30 01:10:00;;;;;;;4.63;3.00;;;;;;;22.02;57.92;101275.78;5073762;28;20028;-72
2021/06/30 01:12:26;;;;;;;3.85;3.45;;;;;;;22.02;57.68;101277.56;5073644;28;20032;-72
2021/06/30 01:14:51;;;;;;;3.85;3.45;;;;;;;22.01;57.78;101274.03;5073622;28;20024;-72
2021/06/30 01:17:17;;;;;;;3.58;2.70;;;;;;;22.01;57.87;101281.06;5073799;28;20024;-72
2021/06/30 01:19:42;;;;;;;4.28;3.88;;;;;;;22.02;57.65;101273.16;5073435;28;20032;-72
2021/06/30 01:22:08;;;;;;;3.53;2.90;;;;;;;22.01;57.72;101276.69;5057050;28;20089;-72
2021/06/30 01:24:34;;;;;;;3.35;2.67;;;;;;;22.00;57.57;101282.84;5074554;28;20485;-72
2021/06/30 01:27:00;;;;;;;4.22;3.55;;;;;;;21.99;57.67;101285.47;5056490;28;20039;-72
2021/06/30 01:29:26;;;;;;;3.75;3.33;;;;;;;22.02;57.54;101288.09;5056768;28;20462;-72
2021/06/30 01:31:52;;;;;;;3.50;3.20;;;;;;;22.00;57.62;101293.38;5056369;28;20032;-72
2021/06/30 01:34:18;;;;;;;3.72;3.00;;;;;;;22.02;57.60;101285.44;5056495;28;20059;-72
2021/06/30 01:36:48;;;;;;;3.50;3.00;;;;;;;22.00;57.61;101282.84;5074430;28;20413;-72
2021/06/30 01:39:14;;;;;;;5.15;3.35;;;;;;;22.02;57.38;101280.19;5074267;28;20039;-72
2021/06/30 01:41:40;;;;;;;3.70;3.13;;;;;;;22.01;57.79;101281.06;5074582;28;20458;-72
2021/06/30 01:44:07;;;;;;;5.15;4.18;;;;;;;22.01;57.80;101273.16;5056291;28;20041;-72
2021/06/30 01:46:33;;;;;;;5.55;3.17;;;;;;;22.00;57.68;101274.06;5073814;28;20115;-72
2021/06/30 01:48:59;;;;;;;3.53;2.88;;;;;;;22.00;57.66;101279.31;5072896;28;20054;-72
2021/06/30 01:51:24;;;;;;;3.85;3.30;;;;;;;21.98;57.69;101275.81;5072775;28;20032;-72
2021/06/30 01:53:53;;;;;;;4.88;3.00;;;;;;;21.97;57.58;101269.66;5072957;28;20483;-72
2021/06/30 01:56:23;;;;;;;4.13;2.80;;;;;;;21.99;57.65;101267.91;5073513;28;20028;-72
2021/06/30 01:58:59;;;;;;;3.80;3.22;;;;;;;21.97;57.83;101274.06;5072615;28;20120;-72
2021/06/30 02:01:25;;;;;;;4.20;3.30;;;;;;;21.99;57.61;101269.69;5073890;28;20036;-72
2021/06/30 02:03:50;;;;;;;2.95;2.65;;;;;;;21.99;57.71;101264.41;5072557;28;20028;-72
2021/06/30 02:06:15;;;;;;;3.08;2.30;;;;;;;22.00;57.62;101260.91;5073645;28;20032;-72
2021/06/30 02:08:41;;;;;;;3.72;2.88;;;;;;;22.00;57.69;101258.25;5072460;28;20070;-72
2021/06/30 02:11:06;;;;;;;4.03;3.40;;;;;;;21.99;57.45;101262.66;5074212;28;20036;-72
2021/06/30 02:13:31;;;;;;;3.85;3.28;;;;;;;21.99;57.73;101259.16;5055923;28;20153;-72
2021/06/30 02:15:57;;;;;;;4.43;3.65;;;;;;;21.97;57.62;101256.50;5039160;28;20040;-72
2021/06/30 02:18:22;;;;;;;3.80;3.05;;;;;;;21.98;57.68;101255.59;5072528;28;20052;-72
2021/06/30 02:20:48;;;;;;;3.78;3.25;;;;;;;21.97;57.70;101255.63;5073589;28;20526;-72
2021/06/30 02:23:13;;;;;;;4.53;2.90;;;;;;;21.95;57.52;101247.75;5055513;28;20040;-72
2021/06/30 02:25:39;;;;;;;3.65;3.17;;;;;;;21.98;57.62;101257.38;5072688;28;20029;-72
2021/06/30 02:28:04;;;;;;;3.58;3.17;;;;;;;21.94;57.56;101255.69;5073546;28;20025;-72
2021/06/30 02:30:32;;;;;;;3.35;2.95;;;;;;;21.97;57.58;101253.88;5072268;28;20040;-72
2021/06/30 02:33:00;;;;;;;3.97;3.10;;;;;;;21.98;57.64;101258.25;5073525;28;20462;-72
2021/06/30 02:35:26;;;;;;;4.65;4.15;;;;;;;21.98;57.57;101257.38;5055733;28;20432;-72
2021/06/30 02:37:55;;;;;;;3.50;3.13;;;;;;;21.95;57.56;101258.28;5073518;28;20413;-72
2021/06/30 02:40:23;;;;;;;4.35;3.45;;;;;;;21.95;57.58;101247.75;5073425;28;20059;-72
2021/06/30 02:42:49;;;;;;;3.60;2.85;;;;;;;21.97;57.69;101255.63;5072082;28;20020;-72
2021/06/30 02:45:16;;;;;;;3.30;3.00;;;;;;;21.95;57.61;101247.75;5073324;28;20028;-72
2021/06/30 02:47:44;;;;;;;3.95;3.55;;;;;;;21.96;57.48;101245.97;5071794;28;20474;-72
2021/06/30 02:50:12;;;;;;;3.83;2.92;;;;;;;21.95;57.69;101249.50;5073285;28;20059;-72
2021/06/30 02:52:38;;;;;;;3.40;3.08;;;;;;;21.96;57.46;101249.47;5073397;28;20378;-72
2021/06/30 02:55:05;;;;;;;3.35;3.05;;;;;;;21.92;57.66;101237.28;5071948;28;20032;-72
2021/06/30 02:57:30;;;;;;;4.85;3.22;;;;;;;21.96;57.64;101240.72;5071971;28;20048;-72
2021/06/30 02:59:56;;;;;;;3.90;3.35;;;;;;;21.94;57.64;101246.00;5073254;28;20489;-72
2021/06/30 03:02:21;;;;;;;3.70;2.95;;;;;;;21.96;57.51;101243.34;5072028;28;20035;-72
2021/06/30 03:04:46;;;;;;;4.22;3.28;;;;;;;21.95;57.55;101253.00;5071786;28;20085;-72
2021/06/30 03:07:12;;;;;;;4.22;3.03;;;;;;;21.95;57.68;101246.88;5055144;28;20036;-72
2021/06/30 03:09:37;;;;;;;4.60;3.97;;;;;;;21.95;57.51;101246.88;5058482;28;20032;-73
2021/06/30 03:12:02;;;;;;;3.38;3.08;;;;;;;21.95;57.51;101244.22;5075879;28;20025;-71
2021/06/30 03:14:29;;;;;;;3.40;2.83;;;;;;;21.94;57.40;101237.25;5075813;28;20474;-71
2021/06/30 03:16:55;;;;;;;4.13;3.25;;;;;;;21.94;57.54;101239.88;5075919;28;20025;-72
2021/06/30 03:19:20;;;;;;;3.10;2.80;;;;;;;21.92;57.50;101232.00;5077382;28;20051;-71
2021/06/30 03:21:46;;;;;;;4.38;3.58;;;;;;;21.94;57.39;101234.63;5058941;28;20111;-71
2021/06/30 03:24:12;;;;;;;3.83;2.97;;;;;;;21.94;57.39;101229.34;5075775;28;20036;-71
2021/06/30 03:26:37;;;;;;;3.38;3.08;;;;;;;21.93;57.55;101224.97;5077235;28;20037;-72
2021/06/30 03:29:04;;;;;;;3.50;2.78;;;;;;;21.92;57.58;101224.09;5078077;28;20082;-72
2021/06/30 03:31:31;;;;;;;3.55;3.03;;;;;;;21.91;57.52;101230.25;5075939;28;20032;-72
2021/06/30 03:33:56;;;;;;;3.65;3.05;;;;;;;21.92;57.42;101234.63;5079156;28;20021;-72
2021/06/30 03:36:22;;;;;;;3.10;2.67;;;;;;;21.90;57.61;101236.41;5078590;28;20070;-72
2021/06/30 03:38:47;;;;;;;3.53;3.20;;;;;;;21.92;57.33;101237.28;5078876;28;20024;-72
2021/06/30 03:41:12;;;;;;;4.88;3.22;;;;;;;21.93;57.52;101232.88;5076870;28;20036;-72
2021/06/30 03:43:38;;;;;;;3.80;3.20;;;;;;;21.93;57.54;101244.28;5058884;28;20055;-71
2021/06/30 03:46:03;;;;;;;3.30;2.72;;;;;;;21.90;57.42;101241.69;5075223;28;20363;-71
2021/06/30 03:48:28;;;;;;;3.50;2.78;;;;;;;21.90;57.54;101243.44;5075017;28;20110;-71
2021/06/30 03:50:54;;;;;;;4.10;3.25;;;;;;;21.93;57.39;101244.28;5058665;28;20071;-71
2021/06/30 03:53:20;;;;;;;3.35;2.72;;;;;;;21.93;57.55;101253.94;5075080;28;20082;-71
2021/06/30 03:55:45;;;;;;;3.38;2.97;;;;;;;21.93;57.47;101251.31;5076302;28;20032;-71
2021/06/30 03:58:11;;;;;;;2.75;2.40;;;;;;;21.88;57.51;101240.81;5075237;28;20406;-71
2021/06/30 04:00:36;;;;;;;3.15;2.85;;;;;;;21.91;57.52;101242.56;5076202;28;20028;-71
2021/06/30 04:03:02;;;;;;;4.00;3.45;;;;;;;21.92;57.41;101239.91;5074886;28;20035;-71
2021/06/30 04:05:27;;;;;;;3.47;3.08;;;;;;;21.92;57.45;101244.31;5074888;28;20114;-72
2021/06/30 04:07:53;;;;;;;4.13;3.47;;;;;;;21.91;57.39;101245.19;5074914;28;20067;-71
2021/06/30 04:10:18;;;;;;;4.10;2.80;;;;;;;21.92;57.50;101245.16;5074970;28;20024;-71
2021/06/30 04:12:44;;;;;;;4.18;3.20;;;;;;;21.89;57.38;101239.94;5074819;28;20033;-71
2021/06/30 04:15:09;;;;;;;3.65;3.13;;;;;;;21.91;57.51;101239.91;5075964;28;20025;-72
2021/06/30 04:17:35;;;;;;;3.78;2.85;;;;;;;21.87;57.60;101233.81;5058153;28;20428;-71
2021/06/30 04:20:03;;;;;;;4.15;3.05;;;;;;;21.91;57.60;101248.69;5075450;28;20064;-71
2021/06/30 04:22:29;;;;;;;3.00;2.65;;;;;;;21.91;57.39;101234.66;5075851;28;20120;-71
2021/06/30 04:24:54;;;;;;;3.65;2.95;;;;;;;21.89;57.46;101239.94;5074610;28;20064;-71
2021/06/30 04:27:19;;;;;;;3.70;3.20;;;;;;;21.91;57.43;101251.31;5075797;28;20036;-71
2021/06/30 04:29:45;;;;;;;4.38;2.92;;;;;;;21.92;57.45;101262.72;5074498;28;20470;-71
2021/06/30 04:32:10;;;;;;;3.05;2.42;;;;;;;21.91;57.47;101261.00;5057607;28;20033;-72
2021/06/30 04:34:36;;;;;;;3.67;3.17;;;;;;;21.88;57.32;101267.16;5075597;28;20047;-71
2021/06/30 04:37:01;;;;;;;3.30;3.00;;;;;;;21.92;57.35;101263.59;5075562;28;20029;-71
2021/06/30 04:39:27;;;;;;;3.92;3.00;;;;;;;21.88;57.31;101259.25;5074275;28;20113;-71
2021/06/30 04:41:54;;;;;;;3.92;3.53;;;;;;;21.90;57.24;101260.13;5074339;28;20112;-71
2021/06/30 04:44:19;;;;;;;5.18;2.95;;;;;;;21.90;57.32;101264.50;5057846;28;20036;-71
2021/06/30 04:46:45;;;;;;;2.97;2.50;;;;;;;21.89;57.42;101258.38;5057275;28;20032;-72
2021/06/30 04:49:10;;;;;;;3.92;3.05;;;;;;;21.91;57.35;101264.50;5057507;28;20049;-71
2021/06/30 04:51:36;;;;;;;4.03;3.45;;;;;;;21.89;57.40;101268.03;5073996;28;20398;-71
2021/06/30 04:54:01;;;;;;;4.32;3.78;;;;;;;21.90;57.03;101278.53;5040745;28;20051;-71
2021/06/30 04:56:27;;;;;;;3.33;2.65;;;;;;;21.88;57.26;101276.81;5073983;28;20082;-73
2021/06/30 04:58:56;;;;;;;3.75;3.35;;;;;;;21.90;57.30;101275.03;5075237;28;20027;-73
2021/06/30 05:01:22;;;;;;;3.47;2.80;;;;;;;21.91;57.29;101280.28;5075095;28;20031;-71
2021/06/30 05:03:48;;;;;;;3.38;2.80;;;;;;;21.90;57.22;101275.91;5057581;28;20032;-71
2021/06/30 05:06:14;;;;;;;4.07;3.45;;;;;;;21.89;57.29;101279.44;5074843;28;20035;-71
2021/06/30 05:08:39;;;;;;;4.32;3.35;;;;;;;21.89;57.37;101276.78;5073726;28;20470;-74
2021/06/30 05:11:05;;;;;;;3.72;3.30;;;;;;;21.86;57.38;101265.44;5056951;28;20066;-71
2021/06/30 05:13:31;;;;;;;5.78;3.30;;;;;;;21.90;57.21;101264.50;5074861;28;20028;-71
2021/06/30 05:15:56;;;;;;;5.53;3.88;;;;;;;21.93;57.24;101269.75;5056932;28;20051;-73
2021/06/30 05:18:22;;;;;;;6.65;3.78;;;;;;;21.93;57.17;101267.97;5073587;28;20028;-71
2021/06/30 05:20:47;;;;;;;9.25;4.15;;;;;;;21.94;57.13;101253.06;5040343;28;20036;-74
2021/06/30 05:23:13;;;;;;;6.07;4.43;;;;;;;21.98;57.38;101267.91;5075192;28;20032;-71
2021/06/30 05:25:39;;;;;;;7.68;4.18;;;;;;;21.97;57.12;101256.50;5075763;28;20085;-71
2021/06/30 05:28:04;;;;;;;5.90;4.32;;;;;;;21.98;57.41;101247.72;5075812;28;20111;-72
2021/06/30 05:30:30;;;;;;;10.90;6.28;;;;;;;22.00;57.28;101237.19;5075228;28;20032;-72
2021/06/30 05:32:55;;;;;;;7.97;5.38;;;;;;;22.01;57.43;101236.31;5076287;28;20032;-74
2021/06/30 05:35:20;;;;;;;7.57;4.78;;;;;;;22.00;57.40;101237.19;5074697;28;20024;-71
2021/06/30 05:37:46;;;;;;;18.90;5.22;;;;;;;22.00;57.20;101231.91;5073604;28;20027;-71
2021/06/30 05:40:11;;;;;;;5.78;4.47;;;;;;;22.00;57.34;101242.47;5056661;28;20462;-71
2021/06/30 05:42:38;;;;;;;7.32;4.63;;;;;;;21.99;57.46;101243.34;5073230;28;20059;-71
2021/06/30 05:45:06;;;;;;;6.15;5.32;;;;;;;21.99;57.62;101251.25;5056777;28;20024;-72
2021/06/30 05:47:31;;;;;;;9.02;5.10;;;;;;;21.95;57.45;101245.09;5073360;28;20124;-72
2021/06/30 05:49:57;;;;;;;8.15;4.68;;;;;;;21.96;57.61;101253.88;5073100;28;20123;-71
2021/06/30 05:52:22;;;;;;;8.18;4.95;;;;;;;21.95;57.49;101262.66;5072873;28;20117;-71
2021/06/30 05:54:48;;;;;;;8.75;4.57;;;;;;;21.97;57.62;101266.16;5074213;28;20032;-71
2021/06/30 05:57:13;;;;;;;8.88;4.82;;;;;;;21.95;57.67;101260.91;5056177;28;20501;-71
2021/06/30 05:59:38;;;;;;;7.72;4.30;;;;;;;21.93;57.77;101257.44;5073872;28;20088;-71
2021/06/30 06:02:04;;;;;;;6.95;4.55;;;;;;;21.97;57.57;101263.53;5072677;28;20078;-72
2021/06/30 06:04:29;;;;;;;7.60;5.53;;;;;;;21.99;57.44;101259.16;5074281;28;20031;-72
2021/06/30 06:06:54;;;;;;;7.70;4.95;;;;;;;21.99;57.53;101265.28;5073846;28;20115;-73
2021/06/30 06:09:20;;;;;;;7.63;4.47;;;;;;;21.96;57.46;101264.41;5072817;28;20060;-73
2021/06/30 06:11:45;;;;;;;7.70;4.38;;;;;;;21.96;57.81;101262.66;5072822;28;20027;-73
2021/06/30 06:14:10;;;;;;;9.15;6.43;;;;;;;21.98;57.79;101270.53;5056065;28;20024;-73
2021/06/30 06:16:36;;;;;;;8.50;5.25;;;;;;;21.97;57.81;101266.16;5072606;28;20082;-73
2021/06/30 06:19:02;;;;;;;7.07;4.97;;;;;;;21.94;57.97;101261.78;5072422;28;20032;-73
2021/06/30 06:21:27;;;;;;;9.63;5.22;;;;;;;21.95;57.83;101257.41;5072644;28;20488;-72
2021/06/30 06:23:53;;;;;;;7.72;4.72;;;;;;;21.93;57.79;101251.31;5072458;28;20123;-72
2021/06/30 06:26:20;;;;;;;12.85;5.63;;;;;;;21.92;57.70;101257.47;5055500;28;20029;-72
2021/06/30 06:28:47;;;;;;;7.80;5.60;;;;;;;21.93;57.80;101253.94;5072504;28;20029;-72
2021/06/30 06:31:15;;;;;;;7.35;4.75;;;;;;;21.93;57.87;101252.19;5072524;28;20074;-72
2021/06/30 06:33:41;;;;;;;10.50;5.57;;;;;;;21.94;57.63;101253.91;5056329;28;20041;-72
2021/06/30 06:36:08;;;;;;;7.28;4.50;;;;;;;21.92;57.78;101254.84;5056707;28;20371;-73
2021/06/30 06:38:36;;;;;;;5.80;4.43;;;;;;;21.92;57.59;101257.47;5076318;28;20389;-73
2021/06/30 06:41:01;;;;;;;6.50;3.95;;;;;;;21.92;57.69;101263.59;5073707;28;20028;-73
2021/06/30 06:43:27;;;;;;;7.32;4.40;;;;;;;21.91;57.61;101263.63;5074551;28;20039;-73
2021/06/30 06:45:52;;;;;;;6.72;5.30;;;;;;;21.93;57.57;101262.72;5057211;28;20075;-73
2021/06/30 06:48:17;;;;;;;6.15;5.00;;;;;;;21.93;57.58;101264.47;5072057;28;20071;-72
2021/06/30 06:50:43;;;;;;;5.38;4.78;;;;;;;21.93;57.50;101265.34;5073483;28;20024;-72
2021/06/30 06:53:08;;;;;;;5.95;4.10;;;;;;;21.93;57.48;101270.63;5072257;28;20071;-72
2021/06/30 06:55:34;;;;;;;8.35;4.97;;;;;;;21.90;57.53;101262.75;5073579;28;20023;-72
2021/06/30 06:58:00;;;;;;;5.78;4.22;;;;;;;21.93;57.48;101277.63;5072328;28;20394;-73
2021/06/30 07:00:26;;;;;;;6.00;4.53;;;;;;;21.93;57.39;101280.28;5073822;28;20032;-72
2021/06/30 07:02:51;;;;;;;7.00;4.88;;;;;;;21.92;57.38;101276.78;5073334;28;20675;-72
2021/06/30 07:05:16;;;;;;;6.82;4.82;;;;;;;21.90;57.37;101272.41;5073326;28;20025;-72
2021/06/30 07:07:42;;;;;;;6.00;4.75;;;;;;;21.90;57.17;101275.03;5073275;28;20047;-72
2021/06/30 07:10:09;;;;;;;9.25;5.30;;;;;;;21.92;57.31;101281.16;5072157;28;20031;-73
2021/06/30 07:12:34;;;;;;;7.07;5.13;;;;;;;21.91;57.35;101285.56;5073151;28;20025;-73
2021/06/30 07:15:01;;;;;;;5.57;4.47;;;;;;;21.92;57.61;101286.44;5055179;28;20029;-73
2021/06/30 07:17:28;;;;;;;6.20;4.72;;;;;;;21.91;57.20;101279.41;5073158;28;20059;-72
2021/06/30 07:19:53;;;;;;;5.95;5.00;;;;;;;21.90;57.22;101282.94;5073130;28;20078;-72
2021/06/30 07:22:19;;;;;;;6.95;5.10;;;;;;;21.88;57.21;101268.91;5073081;28;20024;-72
2021/06/30 07:24:47;;;;;;;4.88;4.20;;;;;;;21.91;57.13;101275.03;5055224;28;20025;-72
2021/06/30 07:27:13;;;;;;;6.28;5.05;;;;;;;21.91;57.35;101275.03;5071859;28;20478;-72
2021/06/30 07:29:38;;;;;;;8.07;5.70;;;;;;;21.91;57.14;101275.03;5073129;28;20482;-72
2021/06/30 07:32:04;;;;;;;6.60;4.78;;;;;;;21.94;57.19;101282.03;5054981;28;20025;-72
2021/06/30 07:34:29;;;;;;;7.13;5.45;;;;;;;21.92;57.13;101283.78;5073018;28;20039;-73
2021/06/30 07:36:55;;;;;;;9.18;5.22;;;;;;;21.93;57.01;101286.41;5055125;28;20186;-72
2021/06/30 07:39:20;;;;;;;5.28;4.78;;;;;;;21.93;56.94;101289.03;5055107;28;20028;-72
2021/06/30 07:41:45;;;;;;;5.57;4.57;;;;;;;21.93;57.03;101291.69;5073227;28;20116;-72
2021/06/30 07:44:11;;;;;;;6.35;4.82;;;;;;;21.89;56.99;101281.19;5071882;28;20046;-72
2021/06/30 07:46:36;;;;;;;5.80;5.20;;;;;;;21.92;56.99;101295.19;5071688;28;20044;-72
2021/06/30 07:49:02;;;;;;;6.20;5.22;;;;;;;21.90;56.98;101290.84;5054657;28;20486;-74
2021/06/30 07:51:27;;;;;;;5.60;4.85;;;;;;;21.93;56.90;101293.44;5072733;28;20115;-72
2021/06/30 07:53:53;;;;;;;8.23;5.18;;;;;;;21.89;57.10;101283.81;5073343;28;20031;-72
2021/06/30 07:56:33;;;;;;;5.95;4.25;;;;;;;21.89;56.91;101297.88;5076394;28;20033;-72
2021/06/30 07:58:58;;;;;;;5.65;4.68;;;;;;;21.91;56.76;101297.84;5075344;28;20025;-72
2021/06/30 08:01:23;;;;;;;6.10;4.57;;;;;;;21.89;56.98;101297.00;5075286;28;20055;-72
2021/06/30 08:03:49;;;;;;;5.97;5.38;;;;;;;21.89;56.96;101294.34;5075285;28;20129;-72
2021/06/30 08:06:14;;;;;;;5.78;4.53;;;;;;;21.89;56.92;101300.50;5058409;28;20082;-72
2021/06/30 08:08:39;;;;;;;5.80;5.10;;;;;;;21.90;56.77;101307.50;5075209;28;20039;-72
2021/06/30 08:11:05;;;;;;;6.93;5.57;;;;;;;21.89;56.95;101307.53;5076614;28;20028;-72
2021/06/30 08:13:30;;;;;;;5.65;4.70;;;;;;;21.89;56.81;101310.16;5058225;28;20028;-72
2021/06/30 08:15:56;;;;;;;5.78;5.03;;;;;;;21.89;56.70;101307.53;5058269;28;20029;-72
2021/06/30 08:18:21;;;;;;;5.25;4.75;;;;;;;21.89;57.01;101304.88;5075052;28;20127;-72
2021/06/30 08:20:51;;;;;;;9.93;5.35;;;;;;;21.89;56.91;101305.75;5076117;28;20025;-72
2021/06/30 08:23:18;;;;;;;6.07;5.35;;;;;;;21.90;56.97;101311.91;5076051;28;20056;-72
2021/06/30 08:25:45;;;;;;;5.78;5.07;;;;;;;21.90;56.96;101318.03;5076190;28;20082;-72
2021/06/30 08:28:10;;;;;;;5.47;4.65;;;;;;;21.90;56.72;101314.53;5058039;28;20031;-72
2021/06/30 08:30:36;;;;;;;6.88;4.78;;;;;;;21.92;56.74;101313.63;5074919;28;20108;-72
2021/06/30 08:33:02;;;;;;;8.60;4.72;;;;;;;21.90;56.72;101311.91;5074861;28;20033;-74
2021/06/30 08:35:27;;;;;;;5.28;4.78;;;;;;;21.92;56.69;101318.03;5075903;28;20031;-73
2021/06/30 08:37:54;;;;;;;5.80;4.35;;;;;;;21.92;56.64;101316.25;5074768;28;20524;-74
2021/06/30 08:40:20;;;;;;;5.80;4.40;;;;;;;21.92;56.73;101318.03;5076343;28;20382;-73
2021/06/30 08:42:46;;;;;;;5.28;4.65;;;;;;;21.93;56.69;101310.13;5058123;28;20024;-74
2021/06/30 08:45:12;;;;;;;5.97;4.90;;;;;;;21.94;56.54;101321.53;5075206;28;20086;-74
2021/06/30 08:47:40;;;;;;;5.20;4.70;;;;;;;21.94;56.62;101316.25;5076598;28;20024;-72
2021/06/30 08:50:07;;;;;;;5.90;4.18;;;;;;;21.92;56.47;101310.13;5074298;28;20057;-72
2021/06/30 08:52:37;;;;;;;7.63;4.95;;;;;;;21.92;56.54;101321.53;5075650;28;20041;-72
2021/06/30 08:55:08;;;;;;;6.85;4.43;;;;;;;21.94;56.49;101310.97;5074084;28;20043;-72
2021/06/30 08:57:34;;;;;;;5.63;4.63;;;;;;;21.95;56.72;101318.84;5075236;28;20021;-72
2021/06/30 09:00:00;;;;;;;5.28;4.78;;;;;;;21.94;56.43;101317.09;5075326;28;20497;-72
2021/06/30 09:02:25;;;;;;;4.63;4.20;;;;;;;21.95;56.73;101317.97;5075302;28;20032;-72
2021/06/30 09:05:00;;;;;;;5.53;4.88;;;;;;;21.92;56.66;101310.13;5073754;28;20028;-72
2021/06/30 09:07:25;;;;;;;7.05;4.68;;;;;;;21.94;56.59;101325.00;5075540;28;20032;-72
2021/06/30 09:09:51;;;;;;;4.50;4.07;;;;;;;21.92;56.50;101315.41;5074175;28;20043;-72
2021/06/30 09:12:17;;;;;;;5.85;4.82;;;;;;;21.95;56.56;101313.56;5074084;28;20024;-72
2021/06/30 09:14:42;;;;;;;6.40;5.63;;;;;;;21.96;56.51;101317.94;5057383;28;20036;-72
2021/06/30 09:19:48;;;;;;;4.28;3.85;;;;;;;21.99;56.37;101324.97;5074997;28;20028;-74
2021/06/30 09:22:15;;;;;;;5.18;4.43;;;;;;;21.97;56.41;101329.34;5073562;28;20107;-72
2021/06/30 09:24:40;;;;;;;5.05;4.30;;;;;;;21.94;56.58;101317.09;5075249;28;20029;-72
2021/06/30 09:27:06;;;;;;;6.32;4.63;;;;;;;21.96;56.61;101328.47;5074617;28;20047;-72
2021/06/30 09:29:31;;;;;;;6.67;4.53;;;;;;;21.95;56.83;101323.22;5074706;28;20037;-72
2021/06/30 09:31:57;;;;;;;5.28;4.07;;;;;;;21.98;56.76;101325.84;5073310;28;20382;-73
2021/06/30 09:34:24;;;;;;;6.65;4.80;;;;;;;21.95;56.69;101324.09;5073415;28;20039;-72
2021/06/30 09:36:55;;;;;;;5.27;4.77;;;;;;;21.97;56.77;101329.34;5074642;28;20043;-72
2021/06/30 09:39:21;;;;;;;6.05;5.07;;;;;;;21.97;56.77;101327.59;5073258;28;20252;-72
2021/06/30 09:41:47;;;;;;;6.03;4.80;;;;;;;21.96;56.84;101330.25;5073773;28;20029;-73
2021/06/30 09:44:20;;;;;;;4.93;4.10;;;;;;;21.95;56.84;101332.00;5059418;28;20061;-72
2021/06/30 09:46:46;;;;;;;;;;;;;;;21.99;56.88;101338.16;5075091;28;20112;-75
2021/06/30 09:49:14;;;;;;;4.75;3.90;;;;;;;22.01;56.76;101336.38;5073637;28;19960;-73
2021/06/30 09:51:41;;;;;;;4.80;4.23;;;;;;;22.00;56.89;101334.63;5075030;28;20039;-71
2021/06/30 09:54:07;;;;;;;6.88;4.53;;;;;;;22.01;56.67;101337.25;5073745;28;20127;-74
2021/06/30 09:56:37;;;;;;;5.15;3.92;;;;;;;22.00;56.81;101335.50;5075841;28;20461;-74
2021/06/30 09:59:09;;;;;;;6.53;5.43;;;;;;;22.03;56.78;101334.59;5073853;28;20028;-74
2021/06/30 10:01:35;;;;;;;4.37;3.90;;;;;;;21.98;56.70;101324.06;5073083;28;20488;-74
2021/06/30 10:04:01;;;;;;;4.95;4.10;;;;;;;22.02;56.53;101332.84;5074307;28;20036;-74
2021/06/30 10:06:31;;;;;;;3.83;3.40;;;;;;;22.03;56.85;101334.59;5074190;28;20027;-74
2021/06/30 10:08:59;;;;;;;4.72;4.07;;;;;;;22.00;56.70;101335.50;5073159;28;20169;-74
2021/06/30 10:11:28;;;;;;;4.68;4.05;;;;;;;22.02;56.79;101332.84;5073791;28;20103;-74
2021/06/30 10:13:56;;;;;;;4.35;3.95;;;;;;;21.99;56.76;101325.84;5072680;28;20028;-74
2021/06/30 10:16:22;;;;;;;6.53;3.92;;;;;;;21.98;56.93;101326.72;5073751;28;20059;-73
2021/06/30 10:18:50;;;;;;;5.50;4.20;;;;;;;22.01;56.92;101334.63;5073628;28;20414;-73
2021/06/30 10:21:18;;;;;;;4.82;4.30;;;;;;;22.03;56.73;101339.88;5073785;28;20450;-73
2021/06/30 10:23:44;;;;;;;4.57;3.85;;;;;;;22.03;56.73;101339.88;5073933;28;20044;-73
2021/06/30 10:26:10;;;;;;;5.43;4.28;;;;;;;22.01;56.82;101336.38;5072438;28;20025;-73
2021/06/30 10:28:36;;;;;;;5.60;4.10;;;;;;;22.02;56.67;101344.25;5072439;28;20028;-73
2021/06/30 10:31:02;;;;;;;4.75;4.15;;;;;;;22.00;56.89;101343.41;5039445;28;20154;-73
2021/06/30 10:33:29;;;;;;;5.25;4.50;;;;;;;21.96;56.81;101339.03;5073557;28;20070;-73
2021/06/30 10:35:55;;;;;;;4.22;3.35;;;;;;;21.99;56.69;101348.69;5073688;28;20032;-73
2021/06/30 10:38:20;;;;;;;5.32;3.95;;;;;;;22.00;56.92;101345.16;5073718;28;20158;-73
2021/06/30 10:40:45;;;;;;;4.28;3.88;;;;;;;21.97;56.77;101345.16;5072388;28;20056;-73
2021/06/30 10:43:13;;;;;;;5.13;3.67;;;;;;;21.98;56.71;101344.28;5073980;28;20032;-73
2021/06/30 10:45:42;;;;;;;5.05;3.85;;;;;;;22.00;56.64;101348.66;5073381;28;20029;-74
2021/06/30 10:48:11;;;;;;;4.93;3.70;;;;;;;21.98;56.37;101344.28;5071994;28;20054;-73
2021/06/30 10:50:54;;;;;;;6.13;4.38;;;;;;;21.58;54.68;101346.44;5073177;28;20522;-73
2021/06/30 10:53:25;;;;;;;7.68;5.32;;;;;;;21.16;55.22;101332.75;5073317;28;20474;-73
2021/06/30 10:55:53;;;;;;;5.45;4.22;;;;;;;21.02;55.54;101337.28;5072622;28;20021;-73
2021/06/30 10:58:24;;;;;;;7.75;4.47;;;;;;;20.84;55.62;101343.53;5073600;28;20074;-73
2021/06/30 11:00:52;;;;;;;7.55;4.20;;;;;;;20.77;55.85;101349.72;5073300;28;20025;-73
2021/06/30 11:03:45;;;;;;;6.47;3.70;;;;;;;20.79;55.96;101355.81;5072079;28;20381;-73
2021/06/30 11:06:13;;;;;;;6.60;3.75;;;;;;;20.87;55.67;101351.41;5072336;28;20028;-73
2021/06/30 11:08:41;;;;;;;4.55;2.97;;;;;;;20.80;55.82;101336.53;5073193;28;20020;-73
2021/06/30 11:11:07;;;;;;;4.78;3.75;;;;;;;20.79;55.71;101349.69;5071888;28;20027;-73
2021/06/30 11:13:57;;;;;;;4.68;3.65;;;;;;;20.63;56.02;101357.69;5072057;28;20445;-72
2021/06/30 11:16:38;;;;;;;10.05;4.47;;;;;;;20.64;56.29;101359.41;5073276;28;20025;-73
2021/06/30 11:19:29;;;;;;;6.07;3.97;;;;;;;20.65;55.79;101368.16;5073302;28;20489;-73
2021/06/30 11:21:59;;;;;;;4.35;3.75;;;;;;;20.41;55.96;101369.16;5065894;28;20063;-73
2021/06/30 11:24:40;;;;;;;6.28;4.55;;;;;;;20.25;56.66;101364.84;5073071;28;20024;-72